Terminal Aerodrome Forecast
Issued by NWS

Home | Current Version | Previous Version | Text Only | Print | Product List | Glossary On
Versions: 1 2 3 4 5 6 7 8 9 10 11 12 13 14 15 16 17 18 19 20 21 22 23
000
FTUS45 KRIW 031723
TAFPNA
TAF
KPNA 031723Z 0318/0418 17014G22KT P6SM VCSH SCT060 OVC100
     FM032100 VRB10G15KT 6SM SHRA VCTS SCT030 OVC060CB
     FM040400 28010KT P6SM SHRA SCT025 OVC040
     FM041600 30007KT P6SM SCT030 BKN060
      AMD LTD TO CLD VIS AND WIND=

USA.gov is the U.S. government's official web portal to all federal, state and local government web resources and services.